sensor_id;sensor_type;location;lat;lon;timestamp;P1;durP1;ratioP1;P2;durP2;ratioP2
41661;SDS011;27351;45.992;12.666;2023-03-01T00:01:25;13.60;;;7.95;;
41661;SDS011;27351;45.992;12.666;2023-03-01T00:03:50;13.07;;;7.82;;
41661;SDS011;27351;45.992;12.666;2023-03-01T00:06:16;11.57;;;7.43;;
41661;SDS011;27351;45.992;12.666;2023-03-01T00:08:42;12.33;;;7.80;;
41661;SDS011;27351;45.992;12.666;2023-03-01T00:11:10;13.80;;;7.40;;
41661;SDS011;27351;45.992;12.666;2023-03-01T00:13:37;12.03;;;7.20;;
41661;SDS011;27351;45.992;12.666;2023-03-01T00:16:03;11.88;;;7.35;;
41661;SDS011;27351;45.992;12.666;2023-03-01T00:18:29;12.63;;;7.88;;
41661;SDS011;27351;45.992;12.666;2023-03-01T00:20:55;14.37;;;7.97;;
41661;SDS011;27351;45.992;12.666;2023-03-01T00:23:21;12.77;;;8.23;;
41661;SDS011;27351;45.992;12.666;2023-03-01T00:25:46;12.77;;;8.25;;
41661;SDS011;27351;45.992;12.666;2023-03-01T00:28:12;12.98;;;7.78;;
41661;SDS011;27351;45.992;12.666;2023-03-01T00:30:38;12.40;;;7.83;;
41661;SDS011;27351;45.992;12.666;2023-03-01T00:33:03;12.57;;;6.87;;
41661;SDS011;27351;45.992;12.666;2023-03-01T00:35:29;17.15;;;8.23;;
41661;SDS011;27351;45.992;12.666;2023-03-01T00:37:56;11.95;;;7.40;;
41661;SDS011;27351;45.992;12.666;2023-03-01T00:40:23;13.32;;;7.32;;
41661;SDS011;27351;45.992;12.666;2023-03-01T00:42:49;11.63;;;7.50;;
41661;SDS011;27351;45.992;12.666;2023-03-01T00:45:15;11.63;;;6.93;;
41661;SDS011;27351;45.992;12.666;2023-03-01T00:47:40;11.50;;;7.10;;
41661;SDS011;27351;45.992;12.666;2023-03-01T00:50:06;12.07;;;6.90;;
41661;SDS011;27351;45.992;12.666;2023-03-01T00:52:32;11.45;;;6.65;;
41661;SDS011;27351;45.992;12.666;2023-03-01T00:54:58;11.80;;;6.90;;
41661;SDS011;27351;45.992;12.666;2023-03-01T00:57:23;11.10;;;7.03;;
41661;SDS011;27351;45.992;12.666;2023-03-01T00:59:49;11.13;;;7.37;;
41661;SDS011;27351;45.992;12.666;2023-03-01T01:02:15;12.30;;;6.95;;
41661;SDS011;27351;45.992;12.666;2023-03-01T01:04:40;12.43;;;6.50;;
41661;SDS011;27351;45.992;12.666;2023-03-01T01:07:06;11.60;;;6.85;;
41661;SDS011;27351;45.992;12.666;2023-03-01T01:09:31;12.25;;;6.85;;
41661;SDS011;27351;45.992;12.666;2023-03-01T01:11:58;12.98;;;7.25;;
41661;SDS011;27351;45.992;12.666;2023-03-01T01:14:23;13.20;;;7.63;;
41661;SDS011;27351;45.992;12.666;2023-03-01T01:16:49;11.10;;;6.50;;
41661;SDS011;27351;45.992;12.666;2023-03-01T01:19:16;10.77;;;6.90;;
41661;SDS011;27351;45.992;12.666;2023-03-01T01:21:41;13.82;;;6.88;;
41661;SDS011;27351;45.992;12.666;2023-03-01T01:24:11;11.45;;;6.38;;
41661;SDS011;27351;45.992;12.666;2023-03-01T01:26:37;10.73;;;6.45;;
41661;SDS011;27351;45.992;12.666;2023-03-01T01:29:04;11.27;;;6.53;;
41661;SDS011;27351;45.992;12.666;2023-03-01T01:31:30;12.07;;;6.35;;
41661;SDS011;27351;45.992;12.666;2023-03-01T01:33:56;10.35;;;6.57;;
41661;SDS011;27351;45.992;12.666;2023-03-01T01:36:23;12.85;;;7.28;;
41661;SDS011;27351;45.992;12.666;2023-03-01T01:38:48;9.52;;;5.85;;
41661;SDS011;27351;45.992;12.666;2023-03-01T01:41:16;10.93;;;6.80;;
41661;SDS011;27351;45.992;12.666;2023-03-01T01:43:43;10.97;;;6.80;;
41661;SDS011;27351;45.992;12.666;2023-03-01T01:48:45;11.73;;;6.28;;
41661;SDS011;27351;45.992;12.666;2023-03-01T01:51:17;10.98;;;6.82;;
41661;SDS011;27351;45.992;12.666;2023-03-01T01:53:44;10.32;;;6.07;;
41661;SDS011;27351;45.992;12.666;2023-03-01T01:56:10;11.40;;;6.82;;
41661;SDS011;27351;45.992;12.666;2023-03-01T01:58:36;11.50;;;6.60;;
41661;SDS011;27351;45.992;12.666;2023-03-01T02:01:03;12.52;;;6.15;;
41661;SDS011;27351;45.992;12.666;2023-03-01T02:03:29;10.43;;;6.47;;
41661;SDS011;27351;45.992;12.666;2023-03-01T02:06:01;12.02;;;6.40;;
41661;SDS011;27351;45.992;12.666;2023-03-01T02:08:29;12.52;;;6.45;;
41661;SDS011;27351;45.992;12.666;2023-03-01T02:10:56;10.00;;;5.80;;
41661;SDS011;27351;45.992;12.666;2023-03-01T02:13:22;13.35;;;6.38;;
41661;SDS011;27351;45.992;12.666;2023-03-01T02:15:48;10.52;;;6.70;;
41661;SDS011;27351;45.992;12.666;2023-03-01T02:18:14;12.32;;;7.00;;
41661;SDS011;27351;45.992;12.666;2023-03-01T02:21:44;10.55;;;6.55;;
41661;SDS011;27351;45.992;12.666;2023-03-01T02:23:37;11.65;;;6.65;;
41661;SDS011;27351;45.992;12.666;2023-03-01T02:28:36;12.75;;;6.63;;
41661;SDS011;27351;45.992;12.666;2023-03-01T02:31:02;11.50;;;6.35;;
41661;SDS011;27351;45.992;12.666;2023-03-01T02:33:47;10.70;;;6.20;;
41661;SDS011;27351;45.992;12.666;2023-03-01T02:36:15;10.20;;;6.13;;
41661;SDS011;27351;45.992;12.666;2023-03-01T02:38:41;11.18;;;6.10;;
41661;SDS011;27351;45.992;12.666;2023-03-01T02:41:07;10.32;;;5.97;;
41661;SDS011;27351;45.992;12.666;2023-03-01T02:43:34;11.07;;;6.10;;
41661;SDS011;27351;45.992;12.666;2023-03-01T02:46:05;10.20;;;5.93;;
41661;SDS011;27351;45.992;12.666;2023-03-01T02:56:48;9.30;;;5.57;;
41661;SDS011;27351;45.992;12.666;2023-03-01T02:59:18;10.02;;;5.22;;
41661;SDS011;27351;45.992;12.666;2023-03-01T03:01:44;9.38;;;5.68;;
41661;SDS011;27351;45.992;12.666;2023-03-01T03:04:11;9.43;;;5.07;;
41661;SDS011;27351;45.992;12.666;2023-03-01T03:06:37;10.47;;;5.73;;
41661;SDS011;27351;45.992;12.666;2023-03-01T03:09:03;10.20;;;5.40;;
41661;SDS011;27351;45.992;12.666;2023-03-01T03:11:29;8.77;;;4.72;;
41661;SDS011;27351;45.992;12.666;2023-03-01T03:13:56;8.40;;;4.65;;
41661;SDS011;27351;45.992;12.666;2023-03-01T03:16:22;11.05;;;5.65;;
41661;SDS011;27351;45.992;12.666;2023-03-01T03:18:48;9.33;;;4.53;;
41661;SDS011;27351;45.992;12.666;2023-03-01T03:21:14;8.80;;;4.87;;
41661;SDS011;27351;45.992;12.666;2023-03-01T03:23:40;8.60;;;4.70;;
41661;SDS011;27351;45.992;12.666;2023-03-01T03:26:05;9.83;;;5.53;;
41661;SDS011;27351;45.992;12.666;2023-03-01T03:28:31;9.83;;;4.80;;
41661;SDS011;27351;45.992;12.666;2023-03-01T03:30:57;9.57;;;5.00;;
41661;SDS011;27351;45.992;12.666;2023-03-01T03:33:23;10.40;;;5.22;;
41661;SDS011;27351;45.992;12.666;2023-03-01T03:35:49;9.32;;;5.25;;
41661;SDS011;27351;45.992;12.666;2023-03-01T03:38:16;9.20;;;5.53;;
41661;SDS011;27351;45.992;12.666;2023-03-01T03:40:46;9.50;;;5.18;;
41661;SDS011;27351;45.992;12.666;2023-03-01T03:43:13;10.40;;;5.70;;
41661;SDS011;27351;45.992;12.666;2023-03-01T03:45:39;10.00;;;5.68;;
41661;SDS011;27351;45.992;12.666;2023-03-01T03:48:05;9.80;;;5.63;;
41661;SDS011;27351;45.992;12.666;2023-03-01T03:50:31;10.77;;;5.43;;
41661;SDS011;27351;45.992;12.666;2023-03-01T03:52:57;15.50;;;5.97;;
41661;SDS011;27351;45.992;12.666;2023-03-01T03:55:22;11.70;;;6.00;;
41661;SDS011;27351;45.992;12.666;2023-03-01T03:57:48;10.20;;;5.80;;
41661;SDS011;27351;45.992;12.666;2023-03-01T04:00:20;9.23;;;5.53;;
41661;SDS011;27351;45.992;12.666;2023-03-01T04:02:46;11.98;;;6.15;;
41661;SDS011;27351;45.992;12.666;2023-03-01T04:05:13;9.35;;;5.25;;
41661;SDS011;27351;45.992;12.666;2023-03-01T04:07:39;9.82;;;5.70;;
41661;SDS011;27351;45.992;12.666;2023-03-01T04:10:06;9.73;;;5.40;;
41661;SDS011;27351;45.992;12.666;2023-03-01T04:12:33;8.70;;;5.22;;
41661;SDS011;27351;45.992;12.666;2023-03-01T04:14:59;9.37;;;5.27;;
41661;SDS011;27351;45.992;12.666;2023-03-01T04:17:25;9.00;;;5.57;;
41661;SDS011;27351;45.992;12.666;2023-03-01T04:19:50;8.83;;;5.00;;
41661;SDS011;27351;45.992;12.666;2023-03-01T04:22:16;10.43;;;5.20;;
41661;SDS011;27351;45.992;12.666;2023-03-01T04:24:44;9.18;;;5.10;;
41661;SDS011;27351;45.992;12.666;2023-03-01T04:27:10;9.07;;;5.53;;
41661;SDS011;27351;45.992;12.666;2023-03-01T04:29:36;8.23;;;4.87;;
41661;SDS011;27351;45.992;12.666;2023-03-01T04:32:01;8.80;;;4.73;;
41661;SDS011;27351;45.992;12.666;2023-03-01T04:34:28;8.93;;;4.47;;
41661;SDS011;27351;45.992;12.666;2023-03-01T04:36:54;8.93;;;4.63;;
41661;SDS011;27351;45.992;12.666;2023-03-01T04:39:19;7.03;;;4.20;;
41661;SDS011;27351;45.992;12.666;2023-03-01T04:41:45;9.93;;;4.97;;
41661;SDS011;27351;45.992;12.666;2023-03-01T04:44:11;7.63;;;4.22;;
41661;SDS011;27351;45.992;12.666;2023-03-01T04:46:36;8.60;;;4.40;;
41661;SDS011;27351;45.992;12.666;2023-03-01T04:49:02;9.23;;;4.35;;
41661;SDS011;27351;45.992;12.666;2023-03-01T04:51:28;7.40;;;4.07;;
41661;SDS011;27351;45.992;12.666;2023-03-01T04:53:54;7.70;;;4.05;;
41661;SDS011;27351;45.992;12.666;2023-03-01T04:56:19;8.55;;;3.83;;
41661;SDS011;27351;45.992;12.666;2023-03-01T04:58:45;6.27;;;3.57;;
41661;SDS011;27351;45.992;12.666;2023-03-01T05:01:11;9.23;;;3.87;;
41661;SDS011;27351;45.992;12.666;2023-03-01T05:03:41;8.50;;;4.70;;
41661;SDS011;27351;45.992;12.666;2023-03-01T05:06:07;6.28;;;3.30;;
41661;SDS011;27351;45.992;12.666;2023-03-01T05:08:32;7.25;;;3.83;;
41661;SDS011;27351;45.992;12.666;2023-03-01T05:10:59;6.55;;;3.65;;
41661;SDS011;27351;45.992;12.666;2023-03-01T05:13:25;6.30;;;3.40;;
41661;SDS011;27351;45.992;12.666;2023-03-01T05:16:00;8.25;;;3.65;;
41661;SDS011;27351;45.992;12.666;2023-03-01T05:18:27;5.93;;;3.50;;
41661;SDS011;27351;45.992;12.666;2023-03-01T05:20:54;6.22;;;3.33;;
41661;SDS011;27351;45.992;12.666;2023-03-01T05:23:21;6.75;;;3.28;;
41661;SDS011;27351;45.992;12.666;2023-03-01T05:25:47;6.70;;;3.35;;
41661;SDS011;27351;45.992;12.666;2023-03-01T05:28:13;6.57;;;3.60;;
41661;SDS011;27351;45.992;12.666;2023-03-01T05:30:39;7.40;;;3.70;;
41661;SDS011;27351;45.992;12.666;2023-03-01T05:33:05;7.13;;;3.93;;
41661;SDS011;27351;45.992;12.666;2023-03-01T05:35:35;7.87;;;4.57;;
41661;SDS011;27351;45.992;12.666;2023-03-01T05:38:01;8.80;;;4.45;;
41661;SDS011;27351;45.992;12.666;2023-03-01T05:40:27;8.10;;;4.40;;
41661;SDS011;27351;45.992;12.666;2023-03-01T05:42:55;7.85;;;4.63;;
41661;SDS011;27351;45.992;12.666;2023-03-01T05:45:21;10.45;;;5.28;;
41661;SDS011;27351;45.992;12.666;2023-03-01T05:47:47;9.07;;;4.60;;
41661;SDS011;27351;45.992;12.666;2023-03-01T05:50:14;9.73;;;4.80;;
41661;SDS011;27351;45.992;12.666;2023-03-01T05:52:45;9.23;;;4.90;;
41661;SDS011;27351;45.992;12.666;2023-03-01T05:55:11;9.88;;;4.95;;
41661;SDS011;27351;45.992;12.666;2023-03-01T05:57:36;7.87;;;4.97;;
41661;SDS011;27351;45.992;12.666;2023-03-01T06:00:02;7.67;;;4.40;;
41661;SDS011;27351;45.992;12.666;2023-03-01T06:02:37;10.75;;;4.93;;
41661;SDS011;27351;45.992;12.666;2023-03-01T06:05:04;8.90;;;4.83;;
41661;SDS011;27351;45.992;12.666;2023-03-01T06:07:30;9.65;;;4.53;;
41661;SDS011;27351;45.992;12.666;2023-03-01T06:09:55;9.73;;;4.60;;
41661;SDS011;27351;45.992;12.666;2023-03-01T06:12:21;10.18;;;5.30;;
41661;SDS011;27351;45.992;12.666;2023-03-01T06:14:46;9.50;;;4.90;;
41661;SDS011;27351;45.992;12.666;2023-03-01T06:17:15;9.57;;;4.70;;
41661;SDS011;27351;45.992;12.666;2023-03-01T06:19:41;9.55;;;4.63;;
41661;SDS011;27351;45.992;12.666;2023-03-01T06:22:06;8.17;;;4.30;;
41661;SDS011;27351;45.992;12.666;2023-03-01T06:24:32;9.43;;;5.00;;
41661;SDS011;27351;45.992;12.666;2023-03-01T06:26:58;7.43;;;4.40;;
41661;SDS011;27351;45.992;12.666;2023-03-01T06:29:24;7.87;;;4.47;;
41661;SDS011;27351;45.992;12.666;2023-03-01T06:31:49;9.80;;;5.27;;
41661;SDS011;27351;45.992;12.666;2023-03-01T06:34:15;9.53;;;5.10;;
41661;SDS011;27351;45.992;12.666;2023-03-01T06:36:40;10.87;;;5.20;;
41661;SDS011;27351;45.992;12.666;2023-03-01T06:39:06;9.70;;;4.90;;
41661;SDS011;27351;45.992;12.666;2023-03-01T06:41:32;7.75;;;4.38;;
41661;SDS011;27351;45.992;12.666;2023-03-01T06:43:58;7.88;;;4.30;;
41661;SDS011;27351;45.992;12.666;2023-03-01T06:46:24;8.50;;;4.72;;
41661;SDS011;27351;45.992;12.666;2023-03-01T06:48:50;8.98;;;4.50;;
41661;SDS011;27351;45.992;12.666;2023-03-01T06:51:15;8.87;;;4.33;;
41661;SDS011;27351;45.992;12.666;2023-03-01T06:53:41;9.40;;;4.37;;
41661;SDS011;27351;45.992;12.666;2023-03-01T06:56:06;10.67;;;4.90;;
41661;SDS011;27351;45.992;12.666;2023-03-01T06:58:32;8.30;;;4.33;;
41661;SDS011;27351;45.992;12.666;2023-03-01T07:00:57;8.57;;;4.43;;
41661;SDS011;27351;45.992;12.666;2023-03-01T07:03:23;9.27;;;4.53;;
41661;SDS011;27351;45.992;12.666;2023-03-01T07:05:49;9.95;;;4.50;;
41661;SDS011;27351;45.992;12.666;2023-03-01T07:08:16;9.98;;;4.13;;
41661;SDS011;27351;45.992;12.666;2023-03-01T07:10:42;10.10;;;4.63;;
41661;SDS011;27351;45.992;12.666;2023-03-01T07:13:08;7.72;;;4.05;;
41661;SDS011;27351;45.992;12.666;2023-03-01T07:15:33;6.47;;;3.90;;
41661;SDS011;27351;45.992;12.666;2023-03-01T07:17:59;7.85;;;4.10;;
41661;SDS011;27351;45.992;12.666;2023-03-01T07:20:24;9.43;;;4.00;;
41661;SDS011;27351;45.992;12.666;2023-03-01T07:22:51;9.43;;;4.00;;
41661;SDS011;27351;45.992;12.666;2023-03-01T07:25:16;9.45;;;4.65;;
41661;SDS011;27351;45.992;12.666;2023-03-01T07:27:42;7.50;;;4.22;;
41661;SDS011;27351;45.992;12.666;2023-03-01T07:30:07;8.93;;;5.05;;
41661;SDS011;27351;45.992;12.666;2023-03-01T07:32:33;7.40;;;4.00;;
41661;SDS011;27351;45.992;12.666;2023-03-01T07:34:59;8.93;;;3.50;;
41661;SDS011;27351;45.992;12.666;2023-03-01T07:37:24;6.47;;;2.90;;
41661;SDS011;27351;45.992;12.666;2023-03-01T07:39:50;8.50;;;2.83;;
41661;SDS011;27351;45.992;12.666;2023-03-01T07:42:15;5.20;;;2.60;;
41661;SDS011;27351;45.992;12.666;2023-03-01T07:44:41;5.47;;;2.63;;
41661;SDS011;27351;45.992;12.666;2023-03-01T07:47:06;5.70;;;2.72;;
41661;SDS011;27351;45.992;12.666;2023-03-01T07:49:32;7.68;;;2.90;;
41661;SDS011;27351;45.992;12.666;2023-03-01T07:51:57;11.00;;;3.90;;
41661;SDS011;27351;45.992;12.666;2023-03-01T07:54:23;8.05;;;3.42;;
41661;SDS011;27351;45.992;12.666;2023-03-01T07:56:48;6.00;;;2.63;;
41661;SDS011;27351;45.992;12.666;2023-03-01T07:59:14;5.90;;;2.35;;
41661;SDS011;27351;45.992;12.666;2023-03-01T08:01:39;5.72;;;2.33;;
41661;SDS011;27351;45.992;12.666;2023-03-01T08:04:05;5.30;;;2.63;;
41661;SDS011;27351;45.992;12.666;2023-03-01T08:06:33;6.07;;;2.92;;
41661;SDS011;27351;45.992;12.666;2023-03-01T08:08:58;8.00;;;4.07;;
41661;SDS011;27351;45.992;12.666;2023-03-01T08:11:24;6.97;;;3.37;;
41661;SDS011;27351;45.992;12.666;2023-03-01T08:13:50;15.20;;;6.67;;
41661;SDS011;27351;45.992;12.666;2023-03-01T08:16:15;12.38;;;5.10;;
41661;SDS011;27351;45.992;12.666;2023-03-01T08:18:41;12.85;;;6.15;;
41661;SDS011;27351;45.992;12.666;2023-03-01T08:21:11;25.27;;;11.02;;
41661;SDS011;27351;45.992;12.666;2023-03-01T08:23:38;13.23;;;6.05;;
41661;SDS011;27351;45.992;12.666;2023-03-01T08:26:13;6.75;;;3.20;;
41661;SDS011;27351;45.992;12.666;2023-03-01T08:28:39;7.77;;;3.13;;
41661;SDS011;27351;45.992;12.666;2023-03-01T08:31:16;7.10;;;2.80;;
41661;SDS011;27351;45.992;12.666;2023-03-01T08:33:42;6.32;;;2.80;;
41661;SDS011;27351;45.992;12.666;2023-03-01T08:36:07;7.33;;;2.60;;
41661;SDS011;27351;45.992;12.666;2023-03-01T08:38:33;8.47;;;3.27;;
41661;SDS011;27351;45.992;12.666;2023-03-01T08:41:00;6.53;;;2.53;;
41661;SDS011;27351;45.992;12.666;2023-03-01T08:43:26;8.52;;;2.33;;
41661;SDS011;27351;45.992;12.666;2023-03-01T08:45:51;5.17;;;2.00;;
41661;SDS011;27351;45.992;12.666;2023-03-01T08:48:16;6.20;;;1.88;;
41661;SDS011;27351;45.992;12.666;2023-03-01T08:50:42;6.32;;;2.60;;
41661;SDS011;27351;45.992;12.666;2023-03-01T08:53:07;5.27;;;2.13;;
41661;SDS011;27351;45.992;12.666;2023-03-01T08:55:33;5.47;;;2.07;;
41661;SDS011;27351;45.992;12.666;2023-03-01T08:57:58;6.20;;;2.30;;
41661;SDS011;27351;45.992;12.666;2023-03-01T09:00:24;6.37;;;2.07;;
41661;SDS011;27351;45.992;12.666;2023-03-01T09:02:50;5.30;;;2.20;;
41661;SDS011;27351;45.992;12.666;2023-03-01T09:05:15;5.50;;;2.15;;
41661;SDS011;27351;45.992;12.666;2023-03-01T09:07:41;5.93;;;1.90;;
41661;SDS011;27351;45.992;12.666;2023-03-01T09:10:07;5.33;;;1.90;;
41661;SDS011;27351;45.992;12.666;2023-03-01T09:12:32;5.82;;;1.70;;
41661;SDS011;27351;45.992;12.666;2023-03-01T09:14:58;5.73;;;2.00;;
41661;SDS011;27351;45.992;12.666;2023-03-01T09:17:23;6.00;;;2.23;;
41661;SDS011;27351;45.992;12.666;2023-03-01T09:19:49;6.30;;;2.50;;
41661;SDS011;27351;45.992;12.666;2023-03-01T09:22:14;7.67;;;2.00;;
41661;SDS011;27351;45.992;12.666;2023-03-01T09:24:40;8.33;;;2.57;;
41661;SDS011;27351;45.992;12.666;2023-03-01T09:27:05;6.03;;;1.92;;
41661;SDS011;27351;45.992;12.666;2023-03-01T09:29:36;6.37;;;2.10;;
41661;SDS011;27351;45.992;12.666;2023-03-01T09:32:02;7.73;;;2.30;;
41661;SDS011;27351;45.992;12.666;2023-03-01T09:34:28;5.13;;;1.87;;
41661;SDS011;27351;45.992;12.666;2023-03-01T09:36:53;8.10;;;2.33;;
41661;SDS011;27351;45.992;12.666;2023-03-01T09:39:19;6.80;;;2.10;;
41661;SDS011;27351;45.992;12.666;2023-03-01T09:44:22;6.88;;;2.05;;
41661;SDS011;27351;45.992;12.666;2023-03-01T09:46:50;8.07;;;2.38;;
41661;SDS011;27351;45.992;12.666;2023-03-01T09:49:23;5.85;;;2.03;;
41661;SDS011;27351;45.992;12.666;2023-03-01T09:54:38;5.72;;;2.30;;
41661;SDS011;27351;45.992;12.666;2023-03-01T09:59:48;5.70;;;2.00;;
41661;SDS011;27351;45.992;12.666;2023-03-01T10:05:10;7.65;;;2.60;;
41661;SDS011;27351;45.992;12.666;2023-03-01T10:10:23;10.27;;;3.45;;
41661;SDS011;27351;45.992;12.666;2023-03-01T10:12:48;10.23;;;3.42;;
41661;SDS011;27351;45.992;12.666;2023-03-01T10:15:15;8.77;;;3.80;;
41661;SDS011;27351;45.992;12.666;2023-03-01T10:17:52;9.45;;;4.18;;
41661;SDS011;27351;45.992;12.666;2023-03-01T10:20:21;10.05;;;4.78;;
41661;SDS011;27351;45.992;12.666;2023-03-01T10:22:47;9.00;;;4.13;;
41661;SDS011;27351;45.992;12.666;2023-03-01T10:25:31;12.70;;;4.45;;
41661;SDS011;27351;45.992;12.666;2023-03-01T10:28:20;10.30;;;4.50;;
41661;SDS011;27351;45.992;12.666;2023-03-01T10:30:49;12.60;;;5.72;;
41661;SDS011;27351;45.992;12.666;2023-03-01T10:33:25;11.00;;;4.57;;
41661;SDS011;27351;45.992;12.666;2023-03-01T10:35:51;9.98;;;4.97;;
41661;SDS011;27351;45.992;12.666;2023-03-01T10:38:17;9.43;;;4.30;;
41661;SDS011;27351;45.992;12.666;2023-03-01T10:40:51;11.13;;;4.63;;
41661;SDS011;27351;45.992;12.666;2023-03-01T10:43:16;13.25;;;4.80;;
41661;SDS011;27351;45.992;12.666;2023-03-01T10:45:42;13.33;;;5.00;;
41661;SDS011;27351;45.992;12.666;2023-03-01T10:55:57;11.77;;;4.30;;
41661;SDS011;27351;45.992;12.666;2023-03-01T10:58:24;9.73;;;4.20;;
41661;SDS011;27351;45.992;12.666;2023-03-01T11:00:51;10.50;;;4.27;;
41661;SDS011;27351;45.992;12.666;2023-03-01T11:03:19;11.50;;;4.78;;
41661;SDS011;27351;45.992;12.666;2023-03-01T11:05:51;13.57;;;5.00;;
41661;SDS011;27351;45.992;12.666;2023-03-01T11:08:29;10.85;;;4.45;;
41661;SDS011;27351;45.992;12.666;2023-03-01T11:11:03;9.90;;;4.45;;
41661;SDS011;27351;45.992;12.666;2023-03-01T11:13:29;11.50;;;3.97;;
41661;SDS011;27351;45.992;12.666;2023-03-01T11:16:02;12.07;;;4.05;;
41661;SDS011;27351;45.992;12.666;2023-03-01T11:18:29;9.60;;;3.60;;
41661;SDS011;27351;45.992;12.666;2023-03-01T11:20:55;11.20;;;3.40;;
41661;SDS011;27351;45.992;12.666;2023-03-01T11:23:21;10.77;;;3.60;;
41661;SDS011;27351;45.992;12.666;2023-03-01T11:26:00;12.20;;;3.67;;
41661;SDS011;27351;45.992;12.666;2023-03-01T11:28:27;11.93;;;4.07;;
41661;SDS011;27351;45.992;12.666;2023-03-01T11:31:10;13.18;;;3.80;;
41661;SDS011;27351;45.992;12.666;2023-03-01T11:33:43;11.87;;;4.03;;
41661;SDS011;27351;45.992;12.666;2023-03-01T11:38:39;12.40;;;4.15;;
41661;SDS011;27351;45.992;12.666;2023-03-01T11:41:06;11.25;;;3.72;;
41661;SDS011;27351;45.992;12.666;2023-03-01T11:43:35;13.87;;;3.93;;
41661;SDS011;27351;45.992;12.666;2023-03-01T11:48:50;10.65;;;3.70;;
41661;SDS011;27351;45.992;12.666;2023-03-01T11:51:25;10.77;;;3.80;;
41661;SDS011;27351;45.992;12.666;2023-03-01T11:59:03;7.73;;;2.47;;
41661;SDS011;27351;45.992;12.666;2023-03-01T12:01:43;8.55;;;3.10;;
41661;SDS011;27351;45.992;12.666;2023-03-01T12:04:28;9.47;;;2.57;;
41661;SDS011;27351;45.992;12.666;2023-03-01T12:14:32;6.70;;;2.73;;
41661;SDS011;27351;45.992;12.666;2023-03-01T12:22:43;10.52;;;3.15;;
41661;SDS011;27351;45.992;12.666;2023-03-01T12:25:16;8.50;;;3.17;;
41661;SDS011;27351;45.992;12.666;2023-03-01T12:30:32;7.38;;;2.78;;
41661;SDS011;27351;45.992;12.666;2023-03-01T12:38:22;9.48;;;3.20;;
41661;SDS011;27351;45.992;12.666;2023-03-01T12:45:54;6.93;;;3.05;;
41661;SDS011;27351;45.992;12.666;2023-03-01T12:48:24;6.95;;;2.83;;
41661;SDS011;27351;45.992;12.666;2023-03-01T12:50:54;6.78;;;3.22;;
41661;SDS011;27351;45.992;12.666;2023-03-01T12:53:25;9.97;;;3.60;;
41661;SDS011;27351;45.992;12.666;2023-03-01T12:55:51;6.32;;;2.90;;
41661;SDS011;27351;45.992;12.666;2023-03-01T13:15:36;7.50;;;2.97;;
41661;SDS011;27351;45.992;12.666;2023-03-01T13:30:57;5.17;;;2.60;;
41661;SDS011;27351;45.992;12.666;2023-03-01T13:35:48;9.05;;;2.90;;
41661;SDS011;27351;45.992;12.666;2023-03-01T13:40:59;7.82;;;2.95;;
41661;SDS011;27351;45.992;12.666;2023-03-01T13:43:29;13.17;;;3.73;;
41661;SDS011;27351;45.992;12.666;2023-03-01T13:45:55;9.82;;;3.42;;
41661;SDS011;27351;45.992;12.666;2023-03-01T13:48:25;10.67;;;4.00;;
41661;SDS011;27351;45.992;12.666;2023-03-01T13:50:53;15.88;;;3.70;;
41661;SDS011;27351;45.992;12.666;2023-03-01T13:53:21;11.10;;;3.55;;
41661;SDS011;27351;45.992;12.666;2023-03-01T13:55:48;9.98;;;3.30;;
41661;SDS011;27351;45.992;12.666;2023-03-01T13:58:16;9.63;;;3.37;;
41661;SDS011;27351;45.992;12.666;2023-03-01T14:00:44;10.50;;;3.53;;
41661;SDS011;27351;45.992;12.666;2023-03-01T14:03:15;14.23;;;4.18;;
41661;SDS011;27351;45.992;12.666;2023-03-01T14:05:42;11.50;;;3.90;;
41661;SDS011;27351;45.992;12.666;2023-03-01T14:08:21;13.73;;;4.20;;
41661;SDS011;27351;45.992;12.666;2023-03-01T14:11:13;13.40;;;3.83;;
41661;SDS011;27351;45.992;12.666;2023-03-01T14:13:39;11.50;;;3.85;;
41661;SDS011;27351;45.992;12.666;2023-03-01T14:21:18;10.93;;;3.70;;
41661;SDS011;27351;45.992;12.666;2023-03-01T14:23:43;10.73;;;3.70;;
41661;SDS011;27351;45.992;12.666;2023-03-01T14:26:09;10.20;;;3.30;;
41661;SDS011;27351;45.992;12.666;2023-03-01T14:28:37;13.35;;;3.83;;
41661;SDS011;27351;45.992;12.666;2023-03-01T14:31:25;11.48;;;3.33;;
41661;SDS011;27351;45.992;12.666;2023-03-01T14:33:56;10.05;;;3.00;;
41661;SDS011;27351;45.992;12.666;2023-03-01T14:36:32;15.55;;;4.28;;
41661;SDS011;27351;45.992;12.666;2023-03-01T14:38:58;11.90;;;4.10;;
41661;SDS011;27351;45.992;12.666;2023-03-01T14:41:31;12.63;;;5.30;;
41661;SDS011;27351;45.992;12.666;2023-03-01T14:44:03;15.93;;;6.43;;
41661;SDS011;27351;45.992;12.666;2023-03-01T14:46:31;14.93;;;6.00;;
41661;SDS011;27351;45.992;12.666;2023-03-01T14:49:01;16.00;;;6.50;;
41661;SDS011;27351;45.992;12.666;2023-03-01T14:51:27;13.43;;;6.32;;
41661;SDS011;27351;45.992;12.666;2023-03-01T14:53:53;12.18;;;5.28;;
41661;SDS011;27351;45.992;12.666;2023-03-01T14:56:19;12.30;;;5.03;;
41661;SDS011;27351;45.992;12.666;2023-03-01T14:58:44;21.05;;;9.45;;
41661;SDS011;27351;45.992;12.666;2023-03-01T15:01:14;14.00;;;6.57;;
41661;SDS011;27351;45.992;12.666;2023-03-01T15:03:40;14.25;;;6.53;;
41661;SDS011;27351;45.992;12.666;2023-03-01T15:06:08;19.08;;;7.28;;
41661;SDS011;27351;45.992;12.666;2023-03-01T15:08:35;12.57;;;5.30;;
41661;SDS011;27351;45.992;12.666;2023-03-01T15:11:15;12.53;;;4.93;;
41661;SDS011;27351;45.992;12.666;2023-03-01T15:13:42;16.15;;;5.22;;
41661;SDS011;27351;45.992;12.666;2023-03-01T15:16:09;13.02;;;5.60;;
41661;SDS011;27351;45.992;12.666;2023-03-01T15:18:36;11.68;;;4.68;;
41661;SDS011;27351;45.992;12.666;2023-03-01T15:21:09;12.27;;;4.60;;
41661;SDS011;27351;45.992;12.666;2023-03-01T15:23:35;14.93;;;4.95;;
41661;SDS011;27351;45.992;12.666;2023-03-01T15:26:02;14.30;;;4.90;;
41661;SDS011;27351;45.992;12.666;2023-03-01T15:28:37;14.48;;;4.90;;
41661;SDS011;27351;45.992;12.666;2023-03-01T15:31:22;14.25;;;5.40;;
41661;SDS011;27351;45.992;12.666;2023-03-01T15:33:48;13.80;;;5.40;;
41661;SDS011;27351;45.992;12.666;2023-03-01T15:38:58;13.50;;;5.75;;
41661;SDS011;27351;45.992;12.666;2023-03-01T15:43:53;15.40;;;6.10;;
41661;SDS011;27351;45.992;12.666;2023-03-01T15:46:29;17.35;;;7.10;;
41661;SDS011;27351;45.992;12.666;2023-03-01T15:48:58;14.15;;;6.30;;
41661;SDS011;27351;45.992;12.666;2023-03-01T15:51:31;16.83;;;6.70;;
41661;SDS011;27351;45.992;12.666;2023-03-01T15:53:58;15.85;;;7.35;;
41661;SDS011;27351;45.992;12.666;2023-03-01T15:56:24;17.70;;;6.80;;
41661;SDS011;27351;45.992;12.666;2023-03-01T15:58:50;14.20;;;6.20;;
41661;SDS011;27351;45.992;12.666;2023-03-01T16:01:16;15.55;;;6.13;;
41661;SDS011;27351;45.992;12.666;2023-03-01T16:03:42;14.05;;;5.65;;
41661;SDS011;27351;45.992;12.666;2023-03-01T16:06:11;11.50;;;5.50;;
41661;SDS011;27351;45.992;12.666;2023-03-01T16:08:37;15.45;;;6.15;;
41661;SDS011;27351;45.992;12.666;2023-03-01T16:11:04;14.30;;;5.75;;
41661;SDS011;27351;45.992;12.666;2023-03-01T16:13:31;10.30;;;5.53;;
41661;SDS011;27351;45.992;12.666;2023-03-01T16:15:57;11.32;;;5.00;;
41661;SDS011;27351;45.992;12.666;2023-03-01T16:18:23;12.32;;;4.57;;
41661;SDS011;27351;45.992;12.666;2023-03-01T16:20:49;11.13;;;4.63;;
41661;SDS011;27351;45.992;12.666;2023-03-01T16:23:15;14.00;;;5.80;;
41661;SDS011;27351;45.992;12.666;2023-03-01T16:25:40;14.23;;;6.00;;
41661;SDS011;27351;45.992;12.666;2023-03-01T16:28:06;12.48;;;5.07;;